sensor_id;sensor_type;location;lat;lon;timestamp;P1;durP1;ratioP1;P2;durP2;ratioP2
53245;SDS011;39569;51.090;-1.786;2023-09-19T00:00:06;8.52;;;3.22;;
53245;SDS011;39569;51.090;-1.786;2023-09-19T00:02:34;7.22;;;3.08;;
53245;SDS011;39569;51.090;-1.786;2023-09-19T00:05:01;14.07;;;3.90;;
53245;SDS011;39569;51.090;-1.786;2023-09-19T00:07:28;10.30;;;3.70;;
53245;SDS011;39569;51.090;-1.786;2023-09-19T00:09:55;8.93;;;3.85;;
53245;SDS011;39569;51.090;-1.786;2023-09-19T00:12:22;6.85;;;3.75;;
53245;SDS011;39569;51.090;-1.786;2023-09-19T00:14:49;6.40;;;3.05;;
53245;SDS011;39569;51.090;-1.786;2023-09-19T00:17:17;9.90;;;3.10;;
53245;SDS011;39569;51.090;-1.786;2023-09-19T00:19:44;11.20;;;5.53;;
53245;SDS011;39569;51.090;-1.786;2023-09-19T00:22:11;26.50;;;4.90;;
53245;SDS011;39569;51.090;-1.786;2023-09-19T00:24:41;10.45;;;3.20;;
53245;SDS011;39569;51.090;-1.786;2023-09-19T00:27:07;23.58;;;3.78;;
53245;SDS011;39569;51.090;-1.786;2023-09-19T00:29:34;23.88;;;4.53;;
53245;SDS011;39569;51.090;-1.786;2023-09-19T00:32:01;12.77;;;4.00;;
53245;SDS011;39569;51.090;-1.786;2023-09-19T00:34:30;8.75;;;3.42;;
53245;SDS011;39569;51.090;-1.786;2023-09-19T00:36:59;5.53;;;2.83;;
53245;SDS011;39569;51.090;-1.786;2023-09-19T00:39:26;10.55;;;3.75;;
53245;SDS011;39569;51.090;-1.786;2023-09-19T00:41:53;9.30;;;2.78;;
53245;SDS011;39569;51.090;-1.786;2023-09-19T00:44:19;6.10;;;3.22;;
53245;SDS011;39569;51.090;-1.786;2023-09-19T00:46:48;13.68;;;3.78;;
53245;SDS011;39569;51.090;-1.786;2023-09-19T00:49:15;9.43;;;3.65;;
53245;SDS011;39569;51.090;-1.786;2023-09-19T00:51:44;13.57;;;3.95;;
53245;SDS011;39569;51.090;-1.786;2023-09-19T00:54:12;6.90;;;3.20;;
53245;SDS011;39569;51.090;-1.786;2023-09-19T00:56:43;7.20;;;3.55;;
53245;SDS011;39569;51.090;-1.786;2023-09-19T00:59:11;6.85;;;3.40;;
53245;SDS011;39569;51.090;-1.786;2023-09-19T01:01:38;8.90;;;3.80;;
53245;SDS011;39569;51.090;-1.786;2023-09-19T01:04:05;8.23;;;3.20;;
53245;SDS011;39569;51.090;-1.786;2023-09-19T01:06:32;8.55;;;3.15;;
53245;SDS011;39569;51.090;-1.786;2023-09-19T01:09:01;7.28;;;2.88;;
53245;SDS011;39569;51.090;-1.786;2023-09-19T01:11:31;7.35;;;3.20;;
53245;SDS011;39569;51.090;-1.786;2023-09-19T01:14:06;6.53;;;3.15;;
53245;SDS011;39569;51.090;-1.786;2023-09-19T01:16:45;11.27;;;4.28;;
53245;SDS011;39569;51.090;-1.786;2023-09-19T01:19:35;8.57;;;3.17;;
53245;SDS011;39569;51.090;-1.786;2023-09-19T01:22:24;5.15;;;2.47;;
53245;SDS011;39569;51.090;-1.786;2023-09-19T01:25:13;6.32;;;2.67;;
53245;SDS011;39569;51.090;-1.786;2023-09-19T01:28:15;9.88;;;3.92;;
53245;SDS011;39569;51.090;-1.786;2023-09-19T01:30:56;8.38;;;2.72;;
53245;SDS011;39569;51.090;-1.786;2023-09-19T01:33:25;7.63;;;3.20;;
53245;SDS011;39569;51.090;-1.786;2023-09-19T01:35:52;10.00;;;3.80;;
53245;SDS011;39569;51.090;-1.786;2023-09-19T01:38:22;9.82;;;3.03;;
53245;SDS011;39569;51.090;-1.786;2023-09-19T01:40:52;10.15;;;3.13;;
53245;SDS011;39569;51.090;-1.786;2023-09-19T01:43:31;14.70;;;4.15;;
53245;SDS011;39569;51.090;-1.786;2023-09-19T01:46:05;11.90;;;2.85;;
53245;SDS011;39569;51.090;-1.786;2023-09-19T01:48:41;7.90;;;2.63;;
53245;SDS011;39569;51.090;-1.786;2023-09-19T01:51:13;12.98;;;3.92;;
53245;SDS011;39569;51.090;-1.786;2023-09-19T01:53:49;6.40;;;3.00;;
53245;SDS011;39569;51.090;-1.786;2023-09-19T01:56:23;5.70;;;3.20;;
53245;SDS011;39569;51.090;-1.786;2023-09-19T01:58:56;6.78;;;3.17;;
53245;SDS011;39569;51.090;-1.786;2023-09-19T02:01:26;5.00;;;2.33;;
53245;SDS011;39569;51.090;-1.786;2023-09-19T02:03:54;10.18;;;3.33;;
53245;SDS011;39569;51.090;-1.786;2023-09-19T02:06:22;4.72;;;2.88;;
53245;SDS011;39569;51.090;-1.786;2023-09-19T02:08:50;6.68;;;2.70;;
53245;SDS011;39569;51.090;-1.786;2023-09-19T02:11:17;5.70;;;2.38;;
53245;SDS011;39569;51.090;-1.786;2023-09-19T02:13:43;9.93;;;3.97;;
53245;SDS011;39569;51.090;-1.786;2023-09-19T02:16:10;6.03;;;3.30;;
53245;SDS011;39569;51.090;-1.786;2023-09-19T02:18:39;14.48;;;3.00;;
53245;SDS011;39569;51.090;-1.786;2023-09-19T02:21:05;9.93;;;2.78;;
53245;SDS011;39569;51.090;-1.786;2023-09-19T02:23:35;8.45;;;3.60;;
53245;SDS011;39569;51.090;-1.786;2023-09-19T02:26:01;8.10;;;3.50;;
53245;SDS011;39569;51.090;-1.786;2023-09-19T02:28:28;18.77;;;3.30;;
53245;SDS011;39569;51.090;-1.786;2023-09-19T02:30:57;17.25;;;3.25;;
53245;SDS011;39569;51.090;-1.786;2023-09-19T02:33:24;11.52;;;3.00;;
53245;SDS011;39569;51.090;-1.786;2023-09-19T02:35:55;8.95;;;2.65;;
53245;SDS011;39569;51.090;-1.786;2023-09-19T02:38:23;7.88;;;3.60;;
53245;SDS011;39569;51.090;-1.786;2023-09-19T02:40:51;8.95;;;3.22;;
53245;SDS011;39569;51.090;-1.786;2023-09-19T02:43:18;4.75;;;2.25;;
53245;SDS011;39569;51.090;-1.786;2023-09-19T02:45:45;9.75;;;4.35;;
53245;SDS011;39569;51.090;-1.786;2023-09-19T02:48:15;8.40;;;3.30;;
53245;SDS011;39569;51.090;-1.786;2023-09-19T02:50:41;11.05;;;3.90;;
53245;SDS011;39569;51.090;-1.786;2023-09-19T02:53:10;7.53;;;2.45;;
53245;SDS011;39569;51.090;-1.786;2023-09-19T02:55:39;6.75;;;2.63;;
53245;SDS011;39569;51.090;-1.786;2023-09-19T02:58:06;4.53;;;2.30;;
53245;SDS011;39569;51.090;-1.786;2023-09-19T03:00:36;6.63;;;2.42;;
53245;SDS011;39569;51.090;-1.786;2023-09-19T03:03:03;8.18;;;2.88;;
53245;SDS011;39569;51.090;-1.786;2023-09-19T03:05:31;3.70;;;2.10;;
53245;SDS011;39569;51.090;-1.786;2023-09-19T03:07:58;11.93;;;3.10;;
53245;SDS011;39569;51.090;-1.786;2023-09-19T03:10:27;8.38;;;2.25;;
53245;SDS011;39569;51.090;-1.786;2023-09-19T03:12:54;5.43;;;3.13;;
53245;SDS011;39569;51.090;-1.786;2023-09-19T03:15:21;5.07;;;2.70;;
53245;SDS011;39569;51.090;-1.786;2023-09-19T03:17:48;6.28;;;2.30;;
53245;SDS011;39569;51.090;-1.786;2023-09-19T03:20:17;8.82;;;3.38;;
53245;SDS011;39569;51.090;-1.786;2023-09-19T03:22:44;13.82;;;4.20;;
53245;SDS011;39569;51.090;-1.786;2023-09-19T03:25:11;9.45;;;2.47;;
53245;SDS011;39569;51.090;-1.786;2023-09-19T03:27:40;15.10;;;2.45;;
53245;SDS011;39569;51.090;-1.786;2023-09-19T03:30:07;13.68;;;2.83;;
53245;SDS011;39569;51.090;-1.786;2023-09-19T03:32:34;4.50;;;2.33;;
53245;SDS011;39569;51.090;-1.786;2023-09-19T03:35:01;5.20;;;2.28;;
53245;SDS011;39569;51.090;-1.786;2023-09-19T03:37:30;7.78;;;3.00;;
53245;SDS011;39569;51.090;-1.786;2023-09-19T03:39:57;3.88;;;1.58;;
53245;SDS011;39569;51.090;-1.786;2023-09-19T03:42:24;10.63;;;2.65;;
53245;SDS011;39569;51.090;-1.786;2023-09-19T03:44:53;9.60;;;2.92;;
53245;SDS011;39569;51.090;-1.786;2023-09-19T03:47:21;8.25;;;2.15;;
53245;SDS011;39569;51.090;-1.786;2023-09-19T03:49:47;10.07;;;3.08;;
53245;SDS011;39569;51.090;-1.786;2023-09-19T03:52:14;7.15;;;2.35;;
53245;SDS011;39569;51.090;-1.786;2023-09-19T03:54:42;4.43;;;3.10;;
53245;SDS011;39569;51.090;-1.786;2023-09-19T03:57:08;5.68;;;2.25;;
53245;SDS011;39569;51.090;-1.786;2023-09-19T03:59:35;8.38;;;3.05;;
53245;SDS011;39569;51.090;-1.786;2023-09-19T04:02:03;9.00;;;3.05;;
53245;SDS011;39569;51.090;-1.786;2023-09-19T04:04:36;7.80;;;1.95;;
53245;SDS011;39569;51.090;-1.786;2023-09-19T04:07:03;4.43;;;2.40;;
53245;SDS011;39569;51.090;-1.786;2023-09-19T04:09:30;9.27;;;3.10;;
53245;SDS011;39569;51.090;-1.786;2023-09-19T04:11:56;5.43;;;2.10;;
53245;SDS011;39569;51.090;-1.786;2023-09-19T04:14:23;14.25;;;1.98;;
53245;SDS011;39569;51.090;-1.786;2023-09-19T04:16:50;5.07;;;1.52;;
53245;SDS011;39569;51.090;-1.786;2023-09-19T04:19:19;6.32;;;2.22;;
53245;SDS011;39569;51.090;-1.786;2023-09-19T04:21:47;5.55;;;2.03;;
53245;SDS011;39569;51.090;-1.786;2023-09-19T04:24:14;5.28;;;2.17;;
53245;SDS011;39569;51.090;-1.786;2023-09-19T04:26:41;2.30;;;1.92;;
53245;SDS011;39569;51.090;-1.786;2023-09-19T04:29:08;6.53;;;1.67;;
53245;SDS011;39569;51.090;-1.786;2023-09-19T04:31:36;5.50;;;2.40;;
53245;SDS011;39569;51.090;-1.786;2023-09-19T04:34:05;2.15;;;1.40;;
53245;SDS011;39569;51.090;-1.786;2023-09-19T04:36:34;6.22;;;1.77;;
53245;SDS011;39569;51.090;-1.786;2023-09-19T04:39:01;12.93;;;2.97;;
53245;SDS011;39569;51.090;-1.786;2023-09-19T04:41:31;11.52;;;2.90;;
53245;SDS011;39569;51.090;-1.786;2023-09-19T04:43:58;8.57;;;1.67;;
53245;SDS011;39569;51.090;-1.786;2023-09-19T04:46:24;9.30;;;3.10;;
53245;SDS011;39569;51.090;-1.786;2023-09-19T04:48:51;5.03;;;2.03;;
53245;SDS011;39569;51.090;-1.786;2023-09-19T04:51:18;5.05;;;2.20;;
53245;SDS011;39569;51.090;-1.786;2023-09-19T04:53:47;3.08;;;1.92;;
53245;SDS011;39569;51.090;-1.786;2023-09-19T04:56:14;2.55;;;1.52;;
53245;SDS011;39569;51.090;-1.786;2023-09-19T04:58:41;6.25;;;2.20;;
53245;SDS011;39569;51.090;-1.786;2023-09-19T05:01:08;10.68;;;1.77;;
53245;SDS011;39569;51.090;-1.786;2023-09-19T05:03:37;2.70;;;2.05;;
53245;SDS011;39569;51.090;-1.786;2023-09-19T05:06:04;4.13;;;1.95;;
53245;SDS011;39569;51.090;-1.786;2023-09-19T05:08:31;4.18;;;1.85;;
53245;SDS011;39569;51.090;-1.786;2023-09-19T05:10:59;13.68;;;2.00;;
53245;SDS011;39569;51.090;-1.786;2023-09-19T05:13:28;5.53;;;1.73;;
53245;SDS011;39569;51.090;-1.786;2023-09-19T05:15:59;7.90;;;1.90;;
53245;SDS011;39569;51.090;-1.786;2023-09-19T05:18:26;7.45;;;2.42;;
53245;SDS011;39569;51.090;-1.786;2023-09-19T05:20:53;5.97;;;2.08;;
53245;SDS011;39569;51.090;-1.786;2023-09-19T05:23:21;11.30;;;2.03;;
53245;SDS011;39569;51.090;-1.786;2023-09-19T05:25:47;5.35;;;1.92;;
53245;SDS011;39569;51.090;-1.786;2023-09-19T05:28:16;6.68;;;2.75;;
53245;SDS011;39569;51.090;-1.786;2023-09-19T05:30:42;6.78;;;2.03;;
53245;SDS011;39569;51.090;-1.786;2023-09-19T05:33:09;3.33;;;1.90;;
53245;SDS011;39569;51.090;-1.786;2023-09-19T05:35:36;4.90;;;2.05;;
53245;SDS011;39569;51.090;-1.786;2023-09-19T05:38:04;5.10;;;2.53;;
53245;SDS011;39569;51.090;-1.786;2023-09-19T05:40:34;8.77;;;2.35;;
53245;SDS011;39569;51.090;-1.786;2023-09-19T05:43:01;5.07;;;2.70;;
53245;SDS011;39569;51.090;-1.786;2023-09-19T05:45:30;7.03;;;2.15;;
53245;SDS011;39569;51.090;-1.786;2023-09-19T05:48:05;3.63;;;2.15;;
53245;SDS011;39569;51.090;-1.786;2023-09-19T05:50:34;5.22;;;2.53;;
53245;SDS011;39569;51.090;-1.786;2023-09-19T05:53:01;7.22;;;2.80;;
53245;SDS011;39569;51.090;-1.786;2023-09-19T05:55:29;10.35;;;2.67;;
53245;SDS011;39569;51.090;-1.786;2023-09-19T05:57:56;3.28;;;1.67;;
53245;SDS011;39569;51.090;-1.786;2023-09-19T06:00:23;7.05;;;3.40;;
53245;SDS011;39569;51.090;-1.786;2023-09-19T06:02:54;8.77;;;2.83;;
53245;SDS011;39569;51.090;-1.786;2023-09-19T06:05:21;4.22;;;2.15;;
53245;SDS011;39569;51.090;-1.786;2023-09-19T06:07:49;9.13;;;2.38;;
53245;SDS011;39569;51.090;-1.786;2023-09-19T06:10:17;7.68;;;2.97;;
53245;SDS011;39569;51.090;-1.786;2023-09-19T06:12:46;6.32;;;2.30;;
53245;SDS011;39569;51.090;-1.786;2023-09-19T06:15:13;7.22;;;2.35;;
53245;SDS011;39569;51.090;-1.786;2023-09-19T06:17:42;9.68;;;3.13;;
53245;SDS011;39569;51.090;-1.786;2023-09-19T06:20:10;9.43;;;3.40;;
53245;SDS011;39569;51.090;-1.786;2023-09-19T06:22:40;6.25;;;3.05;;
53245;SDS011;39569;51.090;-1.786;2023-09-19T06:25:08;7.85;;;3.55;;
53245;SDS011;39569;51.090;-1.786;2023-09-19T06:27:36;5.53;;;2.42;;
53245;SDS011;39569;51.090;-1.786;2023-09-19T06:30:05;13.30;;;3.45;;
53245;SDS011;39569;51.090;-1.786;2023-09-19T06:32:33;14.23;;;3.42;;
53245;SDS011;39569;51.090;-1.786;2023-09-19T06:34:59;7.25;;;2.70;;
53245;SDS011;39569;51.090;-1.786;2023-09-19T06:37:28;9.40;;;3.35;;
53245;SDS011;39569;51.090;-1.786;2023-09-19T06:39:55;7.28;;;3.83;;
53245;SDS011;39569;51.090;-1.786;2023-09-19T06:42:22;9.82;;;3.85;;
53245;SDS011;39569;51.090;-1.786;2023-09-19T06:44:49;7.50;;;3.40;;
53245;SDS011;39569;51.090;-1.786;2023-09-19T06:47:16;11.98;;;3.60;;
53245;SDS011;39569;51.090;-1.786;2023-09-19T06:49:43;12.73;;;4.97;;
53245;SDS011;39569;51.090;-1.786;2023-09-19T06:52:10;11.48;;;3.92;;
53245;SDS011;39569;51.090;-1.786;2023-09-19T06:54:38;10.90;;;3.95;;
53245;SDS011;39569;51.090;-1.786;2023-09-19T06:57:06;11.88;;;5.38;;
53245;SDS011;39569;51.090;-1.786;2023-09-19T06:59:34;5.63;;;3.42;;
53245;SDS011;39569;51.090;-1.786;2023-09-19T07:02:02;8.98;;;5.20;;
53245;SDS011;39569;51.090;-1.786;2023-09-19T07:04:31;11.98;;;4.80;;
53245;SDS011;39569;51.090;-1.786;2023-09-19T07:06:58;8.20;;;4.50;;
53245;SDS011;39569;51.090;-1.786;2023-09-19T07:09:25;6.65;;;3.53;;
53245;SDS011;39569;51.090;-1.786;2023-09-19T07:11:54;4.68;;;2.97;;
53245;SDS011;39569;51.090;-1.786;2023-09-19T07:14:21;10.48;;;3.55;;
53245;SDS011;39569;51.090;-1.786;2023-09-19T07:16:48;12.20;;;3.65;;
53245;SDS011;39569;51.090;-1.786;2023-09-19T07:19:14;6.70;;;3.78;;
53245;SDS011;39569;51.090;-1.786;2023-09-19T07:21:41;13.02;;;5.32;;
53245;SDS011;39569;51.090;-1.786;2023-09-19T07:24:08;10.48;;;3.80;;
53245;SDS011;39569;51.090;-1.786;2023-09-19T07:26:35;11.45;;;5.00;;
53245;SDS011;39569;51.090;-1.786;2023-09-19T07:29:03;9.75;;;5.28;;
53245;SDS011;39569;51.090;-1.786;2023-09-19T07:31:31;9.90;;;5.18;;
53245;SDS011;39569;51.090;-1.786;2023-09-19T07:33:58;19.02;;;5.72;;
53245;SDS011;39569;51.090;-1.786;2023-09-19T07:36:25;9.40;;;5.03;;
53245;SDS011;39569;51.090;-1.786;2023-09-19T07:38:54;20.17;;;6.28;;
53245;SDS011;39569;51.090;-1.786;2023-09-19T07:41:23;18.88;;;5.82;;
53245;SDS011;39569;51.090;-1.786;2023-09-19T07:43:50;11.98;;;4.70;;
53245;SDS011;39569;51.090;-1.786;2023-09-19T07:46:18;12.00;;;5.40;;
53245;SDS011;39569;51.090;-1.786;2023-09-19T07:48:46;16.02;;;6.47;;
53245;SDS011;39569;51.090;-1.786;2023-09-19T07:51:14;30.25;;;4.78;;
53245;SDS011;39569;51.090;-1.786;2023-09-19T07:53:41;15.98;;;6.30;;
53245;SDS011;39569;51.090;-1.786;2023-09-19T07:56:09;13.35;;;6.18;;
53245;SDS011;39569;51.090;-1.786;2023-09-19T07:58:38;13.48;;;5.65;;
53245;SDS011;39569;51.090;-1.786;2023-09-19T08:01:09;17.45;;;5.18;;
53245;SDS011;39569;51.090;-1.786;2023-09-19T08:03:39;15.40;;;4.80;;
53245;SDS011;39569;51.090;-1.786;2023-09-19T08:06:07;13.68;;;5.93;;
53245;SDS011;39569;51.090;-1.786;2023-09-19T08:08:34;9.30;;;5.15;;
53245;SDS011;39569;51.090;-1.786;2023-09-19T08:11:02;14.75;;;6.43;;
53245;SDS011;39569;51.090;-1.786;2023-09-19T08:13:35;17.80;;;6.45;;
53245;SDS011;39569;51.090;-1.786;2023-09-19T08:16:03;7.43;;;3.83;;
53245;SDS011;39569;51.090;-1.786;2023-09-19T08:18:30;12.63;;;4.72;;
53245;SDS011;39569;51.090;-1.786;2023-09-19T08:20:58;13.10;;;5.60;;
53245;SDS011;39569;51.090;-1.786;2023-09-19T08:23:25;18.35;;;5.88;;
53245;SDS011;39569;51.090;-1.786;2023-09-19T08:25:56;12.18;;;6.55;;
53245;SDS011;39569;51.090;-1.786;2023-09-19T08:28:23;16.27;;;6.80;;
53245;SDS011;39569;51.090;-1.786;2023-09-19T08:30:50;21.83;;;6.82;;
53245;SDS011;39569;51.090;-1.786;2023-09-19T08:33:17;20.05;;;5.93;;
53245;SDS011;39569;51.090;-1.786;2023-09-19T08:35:44;18.83;;;7.45;;
53245;SDS011;39569;51.090;-1.786;2023-09-19T08:38:13;24.83;;;8.60;;
53245;SDS011;39569;51.090;-1.786;2023-09-19T08:40:40;13.27;;;5.95;;
53245;SDS011;39569;51.090;-1.786;2023-09-19T08:43:08;20.42;;;7.00;;
53245;SDS011;39569;51.090;-1.786;2023-09-19T08:45:35;15.63;;;6.35;;
53245;SDS011;39569;51.090;-1.786;2023-09-19T08:48:10;12.80;;;6.90;;
53245;SDS011;39569;51.090;-1.786;2023-09-19T08:50:47;25.20;;;6.90;;
53245;SDS011;39569;51.090;-1.786;2023-09-19T08:53:21;15.82;;;7.88;;
53245;SDS011;39569;51.090;-1.786;2023-09-19T08:55:58;9.57;;;5.53;;
53245;SDS011;39569;51.090;-1.786;2023-09-19T08:58:31;14.05;;;6.30;;
53245;SDS011;39569;51.090;-1.786;2023-09-19T09:01:06;21.80;;;6.10;;
53245;SDS011;39569;51.090;-1.786;2023-09-19T09:03:35;11.13;;;7.20;;
53245;SDS011;39569;51.090;-1.786;2023-09-19T09:06:04;24.50;;;6.93;;
53245;SDS011;39569;51.090;-1.786;2023-09-19T09:08:34;22.63;;;8.52;;
53245;SDS011;39569;51.090;-1.786;2023-09-19T09:11:01;21.27;;;7.68;;
53245;SDS011;39569;51.090;-1.786;2023-09-19T09:13:28;30.88;;;8.38;;
53245;SDS011;39569;51.090;-1.786;2023-09-19T09:15:56;15.43;;;6.70;;
53245;SDS011;39569;51.090;-1.786;2023-09-19T09:18:24;16.48;;;8.15;;
53245;SDS011;39569;51.090;-1.786;2023-09-19T09:20:51;15.60;;;6.45;;
53245;SDS011;39569;51.090;-1.786;2023-09-19T09:23:18;14.05;;;6.57;;
53245;SDS011;39569;51.090;-1.786;2023-09-19T09:25:48;26.27;;;7.47;;
53245;SDS011;39569;51.090;-1.786;2023-09-19T09:28:20;20.65;;;8.38;;
53245;SDS011;39569;51.090;-1.786;2023-09-19T09:30:48;16.88;;;7.35;;
53245;SDS011;39569;51.090;-1.786;2023-09-19T09:33:15;12.25;;;6.18;;
53245;SDS011;39569;51.090;-1.786;2023-09-19T09:35:50;14.40;;;7.55;;
53245;SDS011;39569;51.090;-1.786;2023-09-19T09:38:18;13.35;;;6.05;;
53245;SDS011;39569;51.090;-1.786;2023-09-19T09:40:48;16.63;;;5.70;;
53245;SDS011;39569;51.090;-1.786;2023-09-19T09:43:26;10.80;;;5.95;;
53245;SDS011;39569;51.090;-1.786;2023-09-19T09:46:10;17.25;;;6.60;;
53245;SDS011;39569;51.090;-1.786;2023-09-19T09:48:58;19.63;;;6.20;;
53245;SDS011;39569;51.090;-1.786;2023-09-19T09:51:44;20.10;;;5.97;;
53245;SDS011;39569;51.090;-1.786;2023-09-19T09:54:14;9.27;;;4.82;;
53245;SDS011;39569;51.090;-1.786;2023-09-19T09:56:56;12.93;;;4.65;;
53245;SDS011;39569;51.090;-1.786;2023-09-19T09:59:44;18.20;;;6.18;;
53245;SDS011;39569;51.090;-1.786;2023-09-19T10:02:15;12.38;;;4.45;;
53245;SDS011;39569;51.090;-1.786;2023-09-19T10:04:49;9.60;;;5.50;;
53245;SDS011;39569;51.090;-1.786;2023-09-19T10:07:35;9.40;;;4.80;;
53245;SDS011;39569;51.090;-1.786;2023-09-19T10:10:06;11.68;;;5.05;;
53245;SDS011;39569;51.090;-1.786;2023-09-19T10:12:45;13.48;;;6.20;;
53245;SDS011;39569;51.090;-1.786;2023-09-19T10:15:14;12.65;;;5.18;;
53245;SDS011;39569;51.090;-1.786;2023-09-19T10:17:43;14.55;;;6.55;;
53245;SDS011;39569;51.090;-1.786;2023-09-19T10:20:14;10.68;;;5.05;;
53245;SDS011;39569;51.090;-1.786;2023-09-19T10:22:59;13.30;;;5.90;;
53245;SDS011;39569;51.090;-1.786;2023-09-19T10:25:27;10.50;;;6.18;;
53245;SDS011;39569;51.090;-1.786;2023-09-19T10:27:57;20.23;;;5.60;;
53245;SDS011;39569;51.090;-1.786;2023-09-19T10:30:28;10.45;;;4.47;;
53245;SDS011;39569;51.090;-1.786;2023-09-19T10:33:00;14.35;;;4.65;;
53245;SDS011;39569;51.090;-1.786;2023-09-19T10:35:29;11.32;;;5.28;;
53245;SDS011;39569;51.090;-1.786;2023-09-19T10:37:57;11.93;;;4.85;;
53245;SDS011;39569;51.090;-1.786;2023-09-19T10:40:26;12.00;;;3.92;;
53245;SDS011;39569;51.090;-1.786;2023-09-19T10:43:02;12.48;;;4.28;;
53245;SDS011;39569;51.090;-1.786;2023-09-19T10:45:30;6.25;;;3.38;;
53245;SDS011;39569;51.090;-1.786;2023-09-19T10:47:58;8.10;;;3.70;;
53245;SDS011;39569;51.090;-1.786;2023-09-19T10:50:25;6.75;;;3.17;;
53245;SDS011;39569;51.090;-1.786;2023-09-19T10:52:56;6.20;;;3.50;;
53245;SDS011;39569;51.090;-1.786;2023-09-19T10:55:30;8.43;;;3.83;;
53245;SDS011;39569;51.090;-1.786;2023-09-19T10:58:02;7.35;;;3.85;;
53245;SDS011;39569;51.090;-1.786;2023-09-19T11:00:49;10.57;;;4.45;;
53245;SDS011;39569;51.090;-1.786;2023-09-19T11:03:18;10.07;;;5.20;;
53245;SDS011;39569;51.090;-1.786;2023-09-19T11:11:38;16.63;;;5.20;;
53245;SDS011;39569;51.090;-1.786;2023-09-19T11:14:17;7.68;;;4.85;;
53245;SDS011;39569;51.090;-1.786;2023-09-19T11:23:17;18.33;;;5.45;;
53245;SDS011;39569;51.090;-1.786;2023-09-19T11:25:56;11.80;;;5.18;;
53245;SDS011;39569;51.090;-1.786;2023-09-19T11:28:29;9.23;;;5.05;;
53245;SDS011;39569;51.090;-1.786;2023-09-19T11:33:46;11.68;;;5.32;;
53245;SDS011;39569;51.090;-1.786;2023-09-19T11:36:15;15.77;;;3.95;;
53245;SDS011;39569;51.090;-1.786;2023-09-19T11:38:57;5.93;;;4.00;;
53245;SDS011;39569;51.090;-1.786;2023-09-19T11:41:39;6.63;;;3.72;;
53245;SDS011;39569;51.090;-1.786;2023-09-19T11:47:07;10.13;;;4.15;;
53245;SDS011;39569;51.090;-1.786;2023-09-19T11:49:38;9.35;;;4.10;;
53245;SDS011;39569;51.090;-1.786;2023-09-19T11:52:07;19.02;;;3.50;;
53245;SDS011;39569;51.090;-1.786;2023-09-19T11:54:36;9.98;;;4.18;;
53245;SDS011;39569;51.090;-1.786;2023-09-19T11:57:06;5.97;;;2.70;;
53245;SDS011;39569;51.090;-1.786;2023-09-19T11:59:38;10.27;;;3.88;;
53245;SDS011;39569;51.090;-1.786;2023-09-19T12:02:05;20.25;;;5.22;;
53245;SDS011;39569;51.090;-1.786;2023-09-19T12:04:37;6.78;;;3.63;;
53245;SDS011;39569;51.090;-1.786;2023-09-19T12:07:06;4.75;;;3.42;;
53245;SDS011;39569;51.090;-1.786;2023-09-19T12:09:38;15.57;;;3.75;;
53245;SDS011;39569;51.090;-1.786;2023-09-19T12:12:06;9.48;;;3.85;;
53245;SDS011;39569;51.090;-1.786;2023-09-19T12:14:34;12.57;;;3.60;;
53245;SDS011;39569;51.090;-1.786;2023-09-19T12:17:01;10.75;;;4.25;;
53245;SDS011;39569;51.090;-1.786;2023-09-19T12:19:30;3.90;;;2.60;;
53245;SDS011;39569;51.090;-1.786;2023-09-19T12:21:57;10.25;;;4.25;;
53245;SDS011;39569;51.090;-1.786;2023-09-19T12:24:25;9.98;;;4.45;;
53245;SDS011;39569;51.090;-1.786;2023-09-19T12:26:55;5.07;;;2.72;;
53245;SDS011;39569;51.090;-1.786;2023-09-19T12:29:29;7.80;;;3.97;;
53245;SDS011;39569;51.090;-1.786;2023-09-19T12:31:57;6.28;;;3.08;;
53245;SDS011;39569;51.090;-1.786;2023-09-19T12:34:30;11.68;;;3.83;;
53245;SDS011;39569;51.090;-1.786;2023-09-19T12:37:09;4.47;;;3.35;;
53245;SDS011;39569;51.090;-1.786;2023-09-19T12:42:14;7.35;;;3.72;;
53245;SDS011;39569;51.090;-1.786;2023-09-19T12:44:43;16.65;;;4.75;;
53245;SDS011;39569;51.090;-1.786;2023-09-19T12:47:12;13.35;;;4.60;;
53245;SDS011;39569;51.090;-1.786;2023-09-19T12:52:42;6.90;;;3.40;;
53245;SDS011;39569;51.090;-1.786;2023-09-19T12:55:25;5.93;;;3.40;;
53245;SDS011;39569;51.090;-1.786;2023-09-19T12:57:56;7.28;;;3.92;;
53245;SDS011;39569;51.090;-1.786;2023-09-19T13:00:31;4.68;;;3.15;;
53245;SDS011;39569;51.090;-1.786;2023-09-19T13:03:15;12.10;;;3.83;;
53245;SDS011;39569;51.090;-1.786;2023-09-19T13:05:50;7.70;;;4.00;;
53245;SDS011;39569;51.090;-1.786;2023-09-19T13:08:19;14.32;;;4.88;;
53245;SDS011;39569;51.090;-1.786;2023-09-19T13:11:09;7.50;;;3.90;;
53245;SDS011;39569;51.090;-1.786;2023-09-19T13:13:38;19.17;;;4.32;;
53245;SDS011;39569;51.090;-1.786;2023-09-19T13:16:07;6.78;;;3.90;;
53245;SDS011;39569;51.090;-1.786;2023-09-19T13:18:47;5.75;;;3.80;;
53245;SDS011;39569;51.090;-1.786;2023-09-19T13:21:26;11.00;;;4.30;;
53245;SDS011;39569;51.090;-1.786;2023-09-19T13:24:17;7.60;;;3.42;;
53245;SDS011;39569;51.090;-1.786;2023-09-19T13:26:45;8.10;;;3.92;;
53245;SDS011;39569;51.090;-1.786;2023-09-19T13:29:12;12.55;;;3.65;;
53245;SDS011;39569;51.090;-1.786;2023-09-19T13:31:45;6.53;;;4.32;;
53245;SDS011;39569;51.090;-1.786;2023-09-19T13:34:12;9.93;;;4.90;;
53245;SDS011;39569;51.090;-1.786;2023-09-19T13:36:42;6.97;;;4.10;;
53245;SDS011;39569;51.090;-1.786;2023-09-19T13:39:09;11.10;;;4.28;;
53245;SDS011;39569;51.090;-1.786;2023-09-19T13:41:38;7.65;;;3.45;;
53245;SDS011;39569;51.090;-1.786;2023-09-19T13:44:05;10.10;;;3.05;;
53245;SDS011;39569;51.090;-1.786;2023-09-19T13:46:33;8.27;;;3.55;;
53245;SDS011;39569;51.090;-1.786;2023-09-19T13:49:00;9.18;;;3.80;;
53245;SDS011;39569;51.090;-1.786;2023-09-19T13:51:28;7.15;;;3.63;;
53245;SDS011;39569;51.090;-1.786;2023-09-19T13:53:57;11.10;;;4.43;;
53245;SDS011;39569;51.090;-1.786;2023-09-19T13:56:24;17.08;;;3.95;;
53245;SDS011;39569;51.090;-1.786;2023-09-19T13:58:53;5.07;;;3.45;;
53245;SDS011;39569;51.090;-1.786;2023-09-19T14:01:19;9.48;;;4.22;;
53245;SDS011;39569;51.090;-1.786;2023-09-19T14:03:46;8.50;;;4.10;;
53245;SDS011;39569;51.090;-1.786;2023-09-19T14:06:15;16.05;;;3.80;;
53245;SDS011;39569;51.090;-1.786;2023-09-19T14:08:42;18.10;;;4.10;;
53245;SDS011;39569;51.090;-1.786;2023-09-19T14:11:13;14.07;;;3.95;;
53245;SDS011;39569;51.090;-1.786;2023-09-19T14:13:41;5.35;;;3.63;;
53245;SDS011;39569;51.090;-1.786;2023-09-19T14:16:12;7.13;;;3.65;;
53245;SDS011;39569;51.090;-1.786;2023-09-19T14:18:39;6.57;;;4.07;;
53245;SDS011;39569;51.090;-1.786;2023-09-19T14:21:07;10.60;;;4.13;;
53245;SDS011;39569;51.090;-1.786;2023-09-19T14:23:36;8.57;;;4.28;;
53245;SDS011;39569;51.090;-1.786;2023-09-19T14:26:03;10.10;;;3.00;;
53245;SDS011;39569;51.090;-1.786;2023-09-19T14:28:32;11.77;;;3.55;;
53245;SDS011;39569;51.090;-1.786;2023-09-19T14:31:03;13.98;;;4.70;;
53245;SDS011;39569;51.090;-1.786;2023-09-19T14:33:31;6.45;;;3.72;;
53245;SDS011;39569;51.090;-1.786;2023-09-19T14:35:58;8.20;;;3.83;;
53245;SDS011;39569;51.090;-1.786;2023-09-19T14:38:24;12.57;;;3.92;;
53245;SDS011;39569;51.090;-1.786;2023-09-19T14:40:58;16.92;;;4.32;;
53245;SDS011;39569;51.090;-1.786;2023-09-19T14:43:25;7.43;;;4.32;;
53245;SDS011;39569;51.090;-1.786;2023-09-19T14:45:55;12.00;;;4.60;;
53245;SDS011;39569;51.090;-1.786;2023-09-19T14:48:22;5.85;;;2.80;;
53245;SDS011;39569;51.090;-1.786;2023-09-19T14:50:50;9.43;;;3.85;;
53245;SDS011;39569;51.090;-1.786;2023-09-19T14:53:17;9.82;;;4.18;;
53245;SDS011;39569;51.090;-1.786;2023-09-19T14:55:44;7.72;;;3.58;;
53245;SDS011;39569;51.090;-1.786;2023-09-19T14:58:12;7.43;;;3.42;;
53245;SDS011;39569;51.090;-1.786;2023-09-19T15:00:39;7.63;;;3.63;;
53245;SDS011;39569;51.090;-1.786;2023-09-19T15:03:07;16.33;;;4.15;;
53245;SDS011;39569;51.090;-1.786;2023-09-19T15:05:34;14.18;;;4.10;;